createdAt,value
2022-11-20T00:00:22.626Z,2.40
2022-11-20T00:05:24.469Z,2.40
2022-11-20T00:10:26.242Z,2.40
2022-11-20T00:15:27.974Z,2.40
2022-11-20T00:20:29.692Z,2.40
2022-11-20T00:25:31.410Z,2.20
2022-11-20T00:30:33.172Z,2.20
2022-11-20T00:35:34.936Z,2.30
2022-11-20T00:40:36.661Z,2.40
2022-11-20T00:45:38.385Z,2.40
2022-11-20T00:50:41.836Z,2.40
2022-11-20T00:55:43.545Z,2.40
2022-11-20T01:00:45.348Z,2.40
2022-11-20T01:05:47.116Z,2.40
2022-11-20T01:10:48.893Z,2.50
2022-11-20T01:15:50.698Z,2.50
2022-11-20T01:20:52.409Z,2.50
2022-11-20T01:25:54.151Z,2.50
2022-11-20T01:30:55.970Z,2.50
2022-11-20T01:36:06.384Z,2.30
2022-11-20T01:41:09.251Z,2.40
2022-11-20T01:46:19.508Z,2.50
2022-11-20T01:51:28.496Z,2.40
2022-11-20T01:56:35.524Z,2.40
2022-11-20T02:01:40.095Z,2.40
2022-11-20T02:06:56.459Z,2.40
2022-11-20T02:11:59.119Z,2.50
2022-11-20T02:17:00.889Z,2.50
2022-11-20T02:22:38.297Z,2.40
2022-11-20T02:27:40.164Z,2.40
2022-11-20T02:32:42.031Z,2.50
2022-11-20T02:37:44.240Z,2.50
2022-11-20T02:42:46.022Z,2.60
2022-11-20T02:47:47.768Z,2.60
2022-11-20T02:52:49.671Z,2.60
2022-11-20T02:57:51.420Z,2.60
2022-11-20T03:02:53.250Z,2.70
2022-11-20T03:07:54.977Z,2.60
2022-11-20T03:12:56.983Z,2.60
2022-11-20T03:17:58.943Z,2.60
2022-11-20T03:23:01.242Z,2.60
2022-11-20T03:28:03.039Z,2.60
2022-11-20T03:33:04.781Z,2.70
2022-11-20T03:38:06.669Z,2.70
2022-11-20T03:43:10.397Z,2.70
2022-11-20T03:48:12.124Z,2.60
2022-11-20T03:53:14.424Z,2.70
2022-11-20T03:58:16.229Z,2.70
2022-11-20T04:03:17.986Z,2.70
2022-11-20T04:08:19.783Z,2.60
2022-11-20T04:13:21.540Z,2.60
2022-11-20T04:18:23.468Z,2.60
2022-11-20T04:23:28.677Z,2.50
2022-11-20T04:28:30.785Z,2.40
2022-11-20T04:33:34.399Z,2.40
2022-11-20T04:38:36.396Z,2.30
2022-11-20T04:43:38.129Z,2.00
2022-11-20T04:48:39.869Z,2.20
2022-11-20T04:53:41.644Z,2.10
2022-11-20T04:58:44.085Z,2.00
2022-11-20T05:03:46.264Z,1.90
2022-11-20T05:08:48.241Z,1.90
2022-11-20T05:13:51.451Z,1.90
2022-11-20T05:18:55.132Z,1.80
2022-11-20T05:23:56.936Z,1.90
2022-11-20T05:28:58.864Z,2.00
2022-11-20T05:34:00.640Z,2.00
2022-11-20T05:39:02.677Z,2.00
2022-11-20T05:44:04.649Z,2.00
2022-11-20T05:49:06.467Z,2.00
2022-11-20T05:54:08.208Z,2.10
2022-11-20T05:59:09.980Z,2.10
2022-11-20T06:04:11.712Z,2.20
2022-11-20T06:09:13.472Z,2.10
2022-11-20T06:14:15.244Z,2.20
2022-11-20T06:19:17.124Z,2.20
2022-11-20T06:24:19.172Z,2.10
2022-11-20T06:29:21.284Z,2.20
2022-11-20T06:34:23.293Z,2.00
2022-11-20T06:39:25.115Z,2.10
2022-11-20T06:44:27.028Z,2.20
2022-11-20T06:49:28.791Z,2.20
2022-11-20T06:54:30.602Z,2.30
2022-11-20T06:59:32.348Z,2.30
2022-11-20T07:04:34.163Z,2.30
2022-11-20T07:09:35.898Z,2.20
2022-11-20T07:14:37.656Z,2.20
2022-11-20T07:19:39.431Z,2.20
2022-11-20T07:24:45.837Z,2.30
2022-11-20T07:29:47.922Z,2.30
2022-11-20T07:34:49.960Z,2.40
2022-11-20T07:39:51.683Z,2.40
2022-11-20T07:44:53.428Z,2.50
2022-11-20T07:49:55.152Z,2.40
2022-11-20T07:54:56.883Z,2.50
2022-11-20T07:59:58.673Z,2.50
2022-11-20T08:05:00.426Z,2.60
2022-11-20T08:10:02.190Z,2.70
2022-11-20T08:15:11.303Z,2.70
2022-11-20T08:20:14.464Z,2.60
2022-11-20T08:25:16.440Z,2.70
2022-11-20T08:30:18.556Z,2.70
2022-11-20T08:35:20.817Z,2.70
2022-11-20T08:40:22.563Z,2.80
2022-11-20T08:45:24.368Z,2.80
2022-11-20T08:50:26.120Z,2.90
2022-11-20T08:55:27.876Z,3.00
2022-11-20T09:00:29.607Z,3.00
2022-11-20T09:05:31.398Z,2.90
2022-11-20T09:10:33.241Z,2.80
2022-11-20T09:15:36.349Z,2.80
2022-11-20T09:20:38.226Z,2.90
2022-11-20T09:25:40.385Z,2.90
2022-11-20T09:30:42.347Z,2.90
2022-11-20T09:35:44.943Z,2.90
2022-11-20T09:40:57.200Z,3.00
2022-11-20T09:46:30.057Z,3.10
2022-11-20T09:51:40.533Z,3.10
2022-11-20T09:56:46.204Z,3.10
2022-11-20T10:01:50.723Z,3.10
2022-11-20T10:07:30.824Z,3.10
2022-11-20T10:12:50.343Z,3.20
2022-11-20T10:18:14.763Z,3.20
2022-11-20T10:23:42.017Z,3.10
2022-11-20T10:29:23.313Z,3.20
2022-11-20T10:34:36.341Z,3.20
2022-11-20T10:40:00.651Z,3.20
2022-11-20T10:45:20.429Z,3.30
2022-11-20T10:50:24.045Z,3.30
2022-11-20T10:55:44.434Z,3.40
2022-11-20T11:00:46.417Z,3.50
2022-11-20T11:06:13.905Z,3.50
2022-11-20T11:11:28.866Z,3.70
2022-11-20T11:16:33.422Z,3.80
2022-11-20T11:21:36.908Z,3.80
2022-11-20T11:26:38.712Z,3.90
2022-11-20T11:31:40.484Z,3.90
2022-11-20T11:36:43.194Z,4.00
2022-11-20T11:41:45.679Z,4.00
2022-11-20T11:46:57.535Z,4.10
2022-11-20T11:52:17.271Z,4.10
2022-11-20T11:57:32.928Z,4.10
2022-11-20T12:02:46.704Z,4.20
2022-11-20T12:08:11.037Z,4.20
2022-11-20T12:13:36.252Z,4.20
2022-11-20T12:18:38.020Z,4.20
2022-11-20T12:24:00.810Z,4.30
2022-11-20T12:29:25.295Z,4.20
2022-11-20T12:34:46.059Z,4.30
2022-11-20T12:39:51.756Z,4.20
2022-11-20T12:45:12.152Z,4.30
2022-11-20T12:51:00.669Z,4.30
2022-11-20T12:56:30.094Z,4.40
2022-11-20T13:01:51.421Z,4.40
2022-11-20T13:06:53.456Z,4.40
2022-11-20T13:12:30.628Z,4.40
2022-11-20T13:17:48.668Z,4.40
2022-11-20T13:22:58.712Z,4.40
2022-11-20T13:28:05.912Z,4.40
2022-11-20T13:33:09.416Z,4.40
2022-11-20T13:38:13.652Z,4.50
2022-11-20T13:43:29.154Z,4.50
2022-11-20T13:48:40.271Z,4.50
2022-11-20T13:54:07.681Z,4.50
2022-11-20T13:59:33.955Z,4.50
2022-11-20T14:04:38.971Z,4.60
2022-11-20T14:09:57.308Z,4.60
2022-11-20T14:14:59.586Z,4.70
2022-11-20T14:20:13.520Z,4.60
2022-11-20T14:25:15.219Z,4.70
2022-11-20T14:30:19.664Z,4.70
2022-11-20T14:35:35.223Z,4.70
2022-11-20T14:40:37.502Z,4.70
2022-11-20T14:45:39.748Z,4.70
2022-11-20T14:50:41.505Z,4.70
2022-11-20T14:55:43.331Z,4.70
2022-11-20T15:00:55.631Z,4.70
2022-11-20T15:05:57.419Z,4.70
2022-11-20T15:10:59.611Z,4.70
2022-11-20T15:16:13.141Z,4.80
2022-11-20T15:21:17.080Z,4.80
2022-11-20T15:26:26.706Z,4.80
2022-11-20T15:31:28.492Z,4.70
2022-11-20T15:36:30.317Z,4.70
2022-11-20T15:41:32.028Z,4.70
2022-11-20T15:46:39.410Z,4.70
2022-11-20T15:51:44.514Z,4.80
2022-11-20T15:56:47.078Z,4.70
2022-11-20T16:01:48.892Z,4.70
2022-11-20T16:06:50.755Z,4.70
2022-11-20T16:11:52.596Z,4.70
2022-11-20T16:16:54.464Z,4.70
2022-11-20T16:22:02.479Z,4.70
2022-11-20T16:27:04.851Z,4.70
2022-11-20T16:32:06.616Z,4.70
2022-11-20T16:37:08.484Z,4.80
2022-11-20T16:42:16.986Z,4.80
2022-11-20T16:47:19.208Z,4.80
2022-11-20T16:52:20.960Z,4.80
2022-11-20T16:57:22.806Z,4.80
2022-11-20T17:02:24.671Z,4.60
2022-11-20T17:07:26.490Z,4.50
2022-11-20T17:12:28.281Z,4.20
2022-11-20T17:17:30.336Z,4.20
2022-11-20T17:22:32.123Z,4.20
2022-11-20T17:27:33.876Z,4.20
2022-11-20T17:32:35.660Z,4.20
2022-11-20T17:37:37.412Z,4.20
2022-11-20T17:42:39.135Z,4.20
2022-11-20T17:47:42.081Z,4.20
2022-11-20T17:52:43.807Z,4.20
2022-11-20T17:57:56.605Z,4.20
2022-11-20T18:02:59.208Z,4.10
2022-11-20T18:08:00.962Z,4.00
2022-11-20T18:13:02.801Z,4.00
2022-11-20T18:18:04.632Z,3.90
2022-11-20T18:23:06.391Z,3.90
2022-11-20T18:28:08.111Z,3.80
2022-11-20T18:33:09.824Z,3.80
2022-11-20T18:38:11.555Z,3.80
2022-11-20T18:43:34.912Z,3.80
2022-11-20T18:48:36.651Z,3.70
2022-11-20T18:53:41.880Z,3.80
2022-11-20T18:58:46.082Z,3.80
2022-11-20T19:03:47.805Z,3.80
2022-11-20T19:08:49.640Z,3.80
2022-11-20T19:13:52.187Z,3.80
2022-11-20T19:18:56.449Z,3.70
2022-11-20T19:24:01.458Z,3.60
2022-11-20T19:29:04.915Z,3.50
2022-11-20T19:34:06.630Z,3.50
2022-11-20T19:39:10.208Z,3.30
2022-11-20T19:44:14.181Z,3.20
2022-11-20T19:49:15.973Z,3.10
2022-11-20T19:54:17.768Z,3.10
2022-11-20T19:59:19.504Z,3.10
2022-11-20T20:04:21.241Z,3.10
2022-11-20T20:09:23.938Z,3.20
2022-11-20T20:14:26.454Z,3.30
2022-11-20T20:19:28.290Z,3.30
2022-11-20T20:24:30.000Z,3.30
2022-11-20T20:29:31.775Z,3.30
2022-11-20T20:34:33.507Z,3.30
2022-11-20T20:39:35.244Z,3.30
2022-11-20T20:44:55.728Z,3.30
2022-11-20T20:49:57.612Z,3.20
2022-11-20T20:54:59.432Z,3.30
2022-11-20T21:00:01.420Z,3.30
2022-11-20T21:05:03.803Z,3.30
2022-11-20T21:10:05.845Z,3.20
2022-11-20T21:15:07.815Z,3.20
2022-11-20T21:20:30.716Z,3.10
2022-11-20T21:25:36.096Z,3.10
2022-11-20T21:30:37.888Z,3.00
2022-11-20T21:35:39.596Z,2.80
2022-11-20T21:40:41.339Z,2.90
2022-11-20T21:45:43.130Z,3.00
2022-11-20T21:50:44.896Z,3.00
2022-11-20T21:55:53.902Z,3.10
2022-11-20T22:00:55.656Z,3.00
2022-11-20T22:05:58.608Z,3.00
2022-11-20T22:11:03.203Z,3.00
2022-11-20T22:16:05.199Z,3.00
2022-11-20T22:21:07.455Z,3.10
2022-11-20T22:26:14.620Z,3.20
2022-11-20T22:31:17.299Z,3.30
2022-11-20T22:36:28.444Z,3.30
2022-11-20T22:41:30.752Z,3.30
2022-11-20T22:46:34.764Z,3.30
2022-11-20T22:51:39.239Z,3.30
2022-11-20T22:56:41.206Z,3.40
2022-11-20T23:01:42.928Z,3.40
2022-11-20T23:06:45.756Z,3.50
2022-11-20T23:11:47.497Z,3.50
2022-11-20T23:16:50.045Z,3.50
2022-11-20T23:21:51.783Z,3.60
2022-11-20T23:26:53.731Z,3.60
2022-11-20T23:31:55.724Z,3.70
2022-11-20T23:36:57.459Z,3.70
2022-11-20T23:41:59.183Z,3.70
2022-11-20T23:47:00.971Z,3.80
2022-11-20T23:52:02.814Z,3.80
2022-11-20T23:57:04.531Z,3.70
